Thursday, October 23, 2014
16:36 UTC
  |  Log In   |  Register Free
Airport Search:

Clinton-Sampson County Airport
(KCTZ)

Clinton-Sampson County Airport Diagram
No Airport Diagram Available

FAA data valid effective September 18, 2014 - November 13, 2014 (unless otherwise noted).

 
 
 
 
 
 
 
 
 
 
 
 
 
 

Current Aviation Weather for Clinton-Sampson County Airport (KCTZ)

The most recent METAR observation for KCTZ was updated at: 1613
METAR Summary (Translated METAR)
KCTZ
231555Z AUTO 32007KT 10SM CLR 16/07 A3003 RMK AO2 T01610072
KDPL
231555Z AUTO 28006KT 10SM CLR 16/06 A3002 RMK AO2 T01590056
(18.9 nm NE from KCTZ)
KEYF
231555Z AUTO 32006KT 10SM CLR 16/06 A3003 RMK AO2 T01630059
(24.7 nm SW from KCTZ)
TAF
No TAF information found within 50 nm of KCTZ
  Airport Weather Conditions for KCTZ

 Current Weather at CTZ
60° F
Fair
Northwest winds at 6.9 mph
CTZ NOAA Radar

Pressure: 30.03 in
Humidity: 58%
Wind: Northwest at 6.9 MPH (6 KT)
Dew Point: 44.8°F
Visibility: 10.00 mi


Airport Weather Forecast for KCTZ

Translated METAR and TAF for KCTZ
Translated METAR for KCTZ (1631 UTC 23 October 2014)
found at http://aviationweather.gov/adds/metars/
 
METAR text: KCTZ 231615Z AUTO 28007KT 10SM CLR 17/08 A3002 RMK AO2 T01680076
Conditions at: KCTZ (CLINTON , NC, US) observed 1615 UTC 23 October 2014
Temperature: 16.8°C (62°F)
Dewpoint: 7.6°C (46°F) [RH = 55%]
Pressure (altimeter): 30.02 inches Hg (1016.7 mb)
Winds: from the W (280 degrees) at 8 MPH (7 knots; 3.6 m/s)
Visibility: 10 or more miles (16+ km)
Ceiling: at least 12,000 feet AGL
Clouds: sky clear below 12,000 feet AGL
Weather: automated observation with no human augmentation;
there may or may not be significant weather present at this time
Translated TAF for KCTZ

There is no translated TAF available for this airport

Find All Airport Services Find A Hotel Find A Rental Car Find A Golf Course Find A Restaurant $100 Hamburger



FBO's on the Field
FBO Company Facility Photos Services Transportation Aviation Fuel Prices: Prices include tax
Catering Weather Repair Courtesy Rental Type 100LL JetA JetA+ MOGAS 8087
 
Clinton Flying Service

This FBO has not yet been rated
FS:Shell
Last Updated: Oct-07
Login to update fuel prices
SS:
Contact Clinton Flying ServiceMore FBO Information
 
Add another FBO Facility Photos Catering Weather Repair Courtesy Rental Type 100LL JetA JetA+ MOGAS 8087
Services Transportation Aviation Fuel Prices: Prices include tax


model-print
model-print
model-print
model-print